Time;durP1;ratioP1;P1;durP2;ratioP2;P2;SDS_P1;SDS_P2;PMS_P1;PMS_P2;Temp;Humidity;BMP_temperature;BMP_pressure;BME280_temperature;BME280_humidity;BME280_pressure;Samples;Min_cycle;Max_cycle;Signal;HPM_P1;HPM_P2
2021/08/21 00:01:13;;;;;;;12.15;5.43;;;26.40;31.00;;;;;;21130173;27;81011;-72
2021/08/21 00:11:15;;;;;;;10.07;4.38;;;26.30;30.50;;;;;;21129749;27;80773;-72
2021/08/21 00:21:17;;;;;;;7.60;4.20;;;26.10;30.80;;;;;;21128720;27;80771;-73
2021/08/21 00:31:20;;;;;;;11.13;4.82;;;25.90;30.60;;;;;;21128685;27;81131;-72
2021/08/21 00:41:22;;;;;;;11.55;4.13;;;25.90;31.50;;;;;;21128400;27;80050;-77
2021/08/21 00:51:24;;;;;;;11.85;4.30;;;25.70;31.90;;;;;;21145529;27;80043;-75
2021/08/21 01:01:27;;;;;;;7.00;4.45;;;25.50;32.00;;;;;;21144132;27;81333;-74
2021/08/21 01:11:31;;;;;;;10.85;3.95;;;25.40;32.50;;;;;;21125410;27;80748;-75
2021/08/21 01:21:33;;;;;;;9.30;4.30;;;25.20;32.20;;;;;;21123970;27;80165;-75
2021/08/21 01:31:37;;;;;;;6.97;3.58;;;24.90;32.80;;;;;;21142593;27;80653;-78
2021/08/21 01:41:41;;;;;;;11.23;3.75;;;24.60;32.90;;;;;;21123411;27;81059;-76
2021/08/21 01:52:02;;;;;;;7.78;4.07;;;24.50;32.70;;;;;;21125274;27;80771;-73
2021/08/21 02:02:22;;;;;;;10.43;4.28;;;24.50;32.50;;;;;;21124301;27;80438;-72
2021/08/21 02:12:29;;;;;;;9.57;3.88;;;24.30;33.20;;;;;;21122954;27;79909;-76
2021/08/21 02:22:34;;;;;;;11.98;4.80;;;24.50;30.90;;;;;;21122530;27;81111;-78
2021/08/21 02:32:42;;;;;;;16.45;6.53;;;24.50;29.90;;;;;;21120658;27;80001;-75
2021/08/21 02:42:45;;;;;;;17.20;5.45;;;24.40;30.00;;;;;;21119309;27;80928;-74
2021/08/21 02:52:51;;;;;;;14.93;7.57;;;24.30;30.20;;;;;;21119548;27;80468;-75
2021/08/21 03:02:54;;;;;;;16.20;9.32;;;24.30;30.40;;;;;;21118254;27;81122;-75
2021/08/21 03:12:58;;;;;;;14.15;7.70;;;24.00;30.60;;;;;;21118871;27;81297;-74
2021/08/21 03:23:03;;;;;;;18.88;7.38;;;23.90;31.70;;;;;;21136523;27;81157;-76
2021/08/21 03:33:09;;;;;;;15.05;6.38;;;23.90;31.60;;;;;;21117761;27;81934;-72
2021/08/21 03:43:12;;;;;;;14.88;6.43;;;23.70;32.20;;;;;;21128781;27;81864;-73
2021/08/21 03:53:14;;;;;;;9.23;5.40;;;23.60;33.30;;;;;;21130925;27;81770;-77
2021/08/21 04:03:17;;;;;;;9.45;4.75;;;23.50;33.80;;;;;;21148429;27;82160;-75
2021/08/21 04:13:19;;;;;;;8.40;4.93;;;23.20;34.40;;;;;;21130193;27;81822;-75
2021/08/21 04:23:22;;;;;;;11.80;4.18;;;22.90;34.90;;;;;;21129466;27;80077;-76
2021/08/21 04:33:24;;;;;;;9.50;4.40;;;22.60;35.50;;;;;;21147353;27;81020;-75
2021/08/21 04:43:28;;;;;;;11.13;4.57;;;22.20;36.40;;;;;;21129327;27;80920;-75
2021/08/21 04:53:34;;;;;;;30.00;20.50;;;21.90;37.20;;;;;;21144305;27;80654;-73
2021/08/21 05:03:37;;;;;;;47.22;26.80;;;21.80;37.10;;;;;;21115373;27;82569;-77
2021/08/21 05:13:39;;;;;;;18.23;10.13;;;21.60;37.40;;;;;;21114775;27;83656;-73
2021/08/21 05:23:42;;;;;;;13.27;6.18;;;21.80;37.00;;;;;;21115162;27;84609;-71
2021/08/21 05:33:44;;;;;;;17.10;6.32;;;21.70;37.00;;;;;;21190901;27;81893;-72
2021/08/21 05:43:47;;;;;;;14.55;7.85;;;21.70;37.30;;;;;;21192492;27;81559;-72
2021/08/21 05:53:50;;;;;;;10.77;5.53;;;21.70;37.00;;;;;;21215790;27;81372;-72
2021/08/21 06:03:52;;;;;;;12.18;5.10;;;21.70;36.80;;;;;;21195574;27;82380;-73
2021/08/21 06:13:55;;;;;;;11.93;4.38;;;21.80;37.10;;;;;;21195277;27;81261;-71
2021/08/21 06:23:57;;;;;;;9.15;4.30;;;21.90;36.80;;;;;;21194018;27;82039;-72
2021/08/21 06:33:59;;;;;;;9.77;4.05;;;22.10;36.50;;;;;;21190151;27;81717;-73
2021/08/21 06:44:05;;;;;;;13.32;3.97;;;22.20;36.50;;;;;;21209002;27;81181;-71
2021/08/21 06:54:07;;;;;;;17.33;5.90;;;22.40;36.40;;;;;;21193394;27;81280;-71
2021/08/21 07:04:09;;;;;;;;;;;22.60;36.40;;;;;;21189876;27;81009;-72
2021/08/21 07:14:11;;;;;;;12.13;4.33;;;22.90;36.40;;;;;;21239680;27;84108;-72
2021/08/21 07:24:13;;;;;;;15.05;4.40;;;23.20;35.70;;;;;;21207602;27;81287;-71
2021/08/21 07:34:15;;;;;;;11.43;4.13;;;23.50;34.90;;;;;;21207092;27;81264;-77
2021/08/21 07:44:18;;;;;;;11.23;3.00;;;23.90;33.60;;;;;;21226060;27;82331;-71
2021/08/21 07:54:24;;;;;;;7.72;2.45;;;24.40;30.60;;;;;;21208934;27;81301;-69
2021/08/21 08:04:28;;;;;;;7.93;2.72;;;24.70;28.70;;;;;;21204708;27;81371;-67
2021/08/21 08:14:32;;;;;;;5.90;2.75;;;25.10;28.10;;;;;;21223116;27;81820;-69
2021/08/21 08:24:38;;;;;;;7.03;2.60;;;25.40;27.10;;;;;;21222846;27;82262;-63
2021/08/21 08:34:40;;;;;;;6.78;2.97;;;25.80;26.80;;;;;;21204281;27;81923;-69
2021/08/21 08:44:46;;;;;;;5.18;2.65;;;26.20;26.40;;;;;;21202903;27;81874;-63
2021/08/21 08:54:48;;;;;;;9.38;2.70;;;26.40;26.10;;;;;;21201222;27;81779;-69
2021/08/21 09:05:00;;;;;;;10.88;3.30;;;26.60;25.80;;;;;;21199721;27;81092;-71
2021/08/21 09:15:21;;;;;;;6.85;3.00;;;27.00;26.40;;;;;;21200804;27;82472;-73
2021/08/21 09:25:30;;;;;;;11.27;3.37;;;27.50;26.00;;;;;;21198670;27;80914;-69
2021/08/21 09:35:34;;;;;;;15.85;3.20;;;27.80;24.80;;;;;;21199387;27;80593;-66
2021/08/21 09:45:36;;;;;;;8.95;3.10;;;28.20;24.20;;;;;;21195709;27;80099;-66
2021/08/21 09:55:39;;;;;;;6.80;2.78;;;29.00;24.20;;;;;;21217429;27;81057;-66
2021/08/21 10:05:48;;;;;;;4.88;2.63;;;30.00;22.90;;;;;;21216691;27;81661;-65
2021/08/21 10:15:51;;;;;;;7.75;3.53;;;31.10;23.10;;;;;;21197379;27;81482;-65
2021/08/21 10:26:05;;;;;;;6.10;2.83;;;32.10;21.50;;;;;;21215895;27;82230;-67
2021/08/21 10:36:08;;;;;;;8.63;2.85;;;33.70;21.10;;;;;;21195379;27;81773;-64
2021/08/21 10:46:10;;;;;;;5.88;2.70;;;35.40;20.10;;;;;;21193047;27;82258;-68
2021/08/21 10:56:36;;;;;;;6.90;2.97;;;37.20;17.00;;;;;;21207213;27;81287;-65
2021/08/21 11:06:41;;;;;;;7.28;2.55;;;39.10;16.00;;;;;;21205146;27;81381;-66
2021/08/21 11:16:57;;;;;;;5.18;3.10;;;41.90;14.10;;;;;;21211167;27;81804;-64
2021/08/21 11:27:29;;;;;;;7.35;3.13;;;45.00;12.80;;;;;;21227329;27;82103;-65
2021/08/21 11:37:33;;;;;;;3.83;2.22;;;47.40;11.30;;;;;;21207727;27;81503;-66
2021/08/21 11:47:35;;;;;;;9.80;2.90;;;49.90;10.70;;;;;;21227093;27;81240;-65
2021/08/21 11:57:44;;;;;;;4.82;3.13;;;49.70;10.60;;;;;;21237979;27;81645;-64
2021/08/21 12:07:46;;;;;;;4.68;3.17;;;50.90;10.70;;;;;;21235704;27;80805;-64
2021/08/21 12:17:49;;;;;;;5.90;3.10;;;52.20;10.20;;;;;;21215561;27;80691;-67
2021/08/21 12:27:51;;;;;;;9.63;3.60;;;53.40;10.30;;;;;;21216036;27;82435;-63
2021/08/21 12:38:05;;;;;;;4.13;3.33;;;50.80;11.30;;;;;;21233117;27;80001;-65
2021/08/21 12:48:09;;;;;;;5.47;3.60;;;52.00;11.20;;;;;;21233065;27;80733;-66
2021/08/21 12:58:12;;;;;;;8.02;3.95;;;54.10;10.30;;;;;;21215272;27;80563;-66
2021/08/21 13:08:15;;;;;;;6.80;4.00;;;55.50;10.00;;;;;;21213482;27;80760;-63
2021/08/21 13:18:17;;;;;;;6.68;3.47;;;52.10;10.70;;;;;;21212501;27;80999;-68
2021/08/21 13:28:20;;;;;;;7.90;4.85;;;46.00;12.40;;;;;;21212765;27;80753;-68
2021/08/21 13:38:23;;;;;;;7.10;3.60;;;45.20;12.80;;;;;;21211851;27;81571;-67
2021/08/21 13:48:24;;;;;;;6.28;4.32;;;48.20;12.00;;;;;;21209661;27;81320;-67
2021/08/21 13:58:26;;;;;;;10.82;3.65;;;50.00;10.90;;;;;;21208962;27;81808;-65
2021/08/21 14:08:28;;;;;;;6.30;3.72;;;51.40;10.60;;;;;;21208179;27;80626;-68
2021/08/21 14:18:30;;;;;;;6.90;4.30;;;52.20;10.00;;;;;;21227366;27;80579;-68
2021/08/21 14:28:32;;;;;;;6.35;4.13;;;52.00;10.00;;;;;;21207548;27;81089;-64
2021/08/21 14:38:35;;;;;;;5.15;4.75;;;57.50;8.70;;;;;;21206606;27;81055;-66
2021/08/21 14:48:36;;;;;;;5.50;5.00;;;57.90;8.50;;;;;;21207249;27;81723;-68
2021/08/21 14:58:39;;;;;;;5.53;5.13;;;56.50;9.10;;;;;;21205356;27;81077;-64
2021/08/21 15:08:41;;;;;;;6.73;4.73;;;57.00;8.60;;;;;;21204883;27;81033;-66
2021/08/21 15:18:44;;;;;;;5.10;3.70;;;53.00;9.30;;;;;;21173526;27;79972;-65
2021/08/21 15:28:45;;;;;;;5.13;3.50;;;48.20;10.80;;;;;;21118090;27;80031;-65
2021/08/21 15:38:47;;;;;;;3.72;2.63;;;44.00;11.50;;;;;;21127798;27;81176;-70
2021/08/21 15:48:49;;;;;;;4.93;3.67;;;42.20;11.80;;;;;;21152569;27;79857;-69
2021/08/21 15:58:51;;;;;;;4.10;2.78;;;42.80;11.20;;;;;;21132016;27;80674;-69
2021/08/21 16:08:52;;;;;;;4.88;3.05;;;46.70;10.30;;;;;;21149005;27;81153;-67
2021/08/21 16:18:54;;;;;;;3.47;2.70;;;45.10;10.70;;;;;;21171328;27;81038;-68
2021/08/21 16:28:56;;;;;;;4.05;2.58;;;45.20;10.90;;;;;;21210672;27;80912;-65
2021/08/21 16:39:00;;;;;;;4.90;2.42;;;43.20;10.80;;;;;;21214955;27;81332;-63
2021/08/21 16:49:02;;;;;;;4.70;1.95;;;39.50;13.90;;;;;;21230423;27;80722;-61
2021/08/21 16:59:04;;;;;;;3.70;1.70;;;39.30;14.70;;;;;;21231577;27;80684;-65
2021/08/21 17:09:06;;;;;;;3.00;1.98;;;39.00;12.30;;;;;;21230229;27;80500;-71
2021/08/21 17:19:07;;;;;;;3.53;1.63;;;37.50;14.40;;;;;;21212424;27;80028;-69
2021/08/21 17:29:09;;;;;;;3.85;2.03;;;36.80;13.30;;;;;;21228762;27;81222;-66
2021/08/21 17:39:11;;;;;;;3.40;1.70;;;36.00;13.90;;;;;;21210045;27;80693;-64
2021/08/21 17:49:13;;;;;;;3.75;1.70;;;35.80;16.20;;;;;;21210151;27;82050;-66
2021/08/21 17:59:15;;;;;;;4.85;1.90;;;35.40;13.90;;;;;;21229207;27;81833;-65
2021/08/21 18:09:17;;;;;;;4.82;1.95;;;35.10;14.00;;;;;;21226624;27;81756;-69
2021/08/21 18:19:18;;;;;;;4.30;2.08;;;35.80;14.10;;;;;;21207064;27;80782;-66
2021/08/21 18:29:23;;;;;;;3.20;1.73;;;35.40;14.90;;;;;;21208158;27;82338;-70
2021/08/21 18:39:25;;;;;;;3.05;1.70;;;36.10;13.40;;;;;;21206876;27;79988;-65
2021/08/21 18:49:26;;;;;;;2.92;1.83;;;34.20;14.20;;;;;;21224855;27;80021;-64
2021/08/21 18:59:28;;;;;;;5.78;2.10;;;33.40;16.90;;;;;;21225336;27;79968;-66
2021/08/21 19:09:30;;;;;;;4.55;2.58;;;32.90;15.40;;;;;;21209968;27;80664;-67
2021/08/21 19:19:32;;;;;;;4.57;2.30;;;32.40;15.60;;;;;;21220220;27;80552;-63
2021/08/21 19:29:35;;;;;;;9.70;3.30;;;32.00;18.50;;;;;;21219507;27;81108;-63
2021/08/21 19:39:37;;;;;;;6.35;2.72;;;31.60;17.10;;;;;;21219799;27;80003;-69
2021/08/21 19:49:39;;;;;;;4.85;2.70;;;31.20;17.60;;;;;;21238134;27;80937;-68
2021/08/21 19:59:41;;;;;;;5.10;2.97;;;30.90;21.00;;;;;;21236834;27;81704;-63
2021/08/21 20:09:43;;;;;;;15.10;10.07;;;30.50;20.50;;;;;;21237087;27;81240;-64
2021/08/21 20:19:45;;;;;;;29.90;15.45;;;30.20;19.40;;;;;;21224055;27;82778;-65
2021/08/21 20:29:47;;;;;;;12.65;8.23;;;29.90;20.00;;;;;;21204901;27;83311;-63
2021/08/21 20:39:49;;;;;;;19.23;9.23;;;29.70;19.80;;;;;;21215270;27;83325;-62
2021/08/21 20:49:54;;;;;;;28.40;14.13;;;29.60;20.50;;;;;;21233405;27;82091;-63
2021/08/21 20:59:56;;;;;;;22.17;11.75;;;29.40;20.90;;;;;;21203161;27;82696;-64
2021/08/21 21:09:57;;;;;;;12.98;5.82;;;29.00;21.40;;;;;;21220671;27;83575;-63
2021/08/21 21:19:59;;;;;;;11.95;4.28;;;28.80;21.80;;;;;;21213342;27;83932;-64
2021/08/21 21:30:03;;;;;;;8.90;3.55;;;28.70;20.90;;;;;;21212069;27;81812;-64
2021/08/21 21:40:06;;;;;;;14.38;4.82;;;28.60;21.30;;;;;;21212908;27;80681;-67
2021/08/21 21:50:09;;;;;;;10.13;5.45;;;28.30;22.50;;;;;;21228849;27;80105;-66
2021/08/21 22:00:30;;;;;;;6.97;4.78;;;28.00;22.10;;;;;;21221445;27;80837;-76
2021/08/21 22:10:33;;;;;;;10.57;4.50;;;28.00;22.50;;;;;;21216886;27;80726;-72
2021/08/21 22:20:35;;;;;;;7.00;4.13;;;27.70;23.40;;;;;;21219970;27;82298;-74
2021/08/21 22:30:42;;;;;;;13.02;5.07;;;27.30;23.30;;;;;;21200548;27;80767;-74
2021/08/21 22:40:44;;;;;;;7.68;3.40;;;27.20;23.90;;;;;;21176096;27;80699;-71
2021/08/21 22:50:46;;;;;;;7.43;3.72;;;27.00;23.40;;;;;;21131857;27;80668;-72
2021/08/21 23:00:48;;;;;;;9.57;3.60;;;26.70;23.50;;;;;;21066174;27;1870795;-74
2021/08/21 23:10:50;;;;;;;6.65;3.00;;;26.40;23.30;;;;;;21137782;27;81854;-74
2021/08/21 23:20:53;;;;;;;7.95;3.03;;;26.30;23.30;;;;;;21136948;27;80638;-73
2021/08/21 23:30:55;;;;;;;8.65;3.50;;;26.00;23.50;;;;;;21137331;27;82383;-74
2021/08/21 23:40:58;;;;;;;10.23;3.88;;;25.80;23.70;;;;;;21135933;27;80904;-75
2021/08/21 23:51:02;;;;;;;8.75;3.40;;;25.70;24.50;;;;;;21135372;27;81863;-73
